sensor_id;sensor_type;location;lat;lon;timestamp;P1;durP1;ratioP1;P2;durP2;ratioP2
59314;SDS011;46521;50.160;20.802;2023-03-16T00:07:59;28.87;;;16.33;;
59314;SDS011;46521;50.160;20.802;2023-03-16T00:18:00;29.80;;;16.40;;
59314;SDS011;46521;50.160;20.802;2023-03-16T00:28:01;30.10;;;16.70;;
59314;SDS011;46521;50.160;20.802;2023-03-16T00:38:03;32.20;;;16.40;;
59314;SDS011;46521;50.160;20.802;2023-03-16T00:48:05;29.00;;;15.70;;
59314;SDS011;46521;50.160;20.802;2023-03-16T00:58:06;25.60;;;14.90;;
59314;SDS011;46521;50.160;20.802;2023-03-16T01:08:08;26.47;;;13.73;;
59314;SDS011;46521;50.160;20.802;2023-03-16T01:18:09;20.00;;;10.30;;
59314;SDS011;46521;50.160;20.802;2023-03-16T01:28:13;14.75;;;8.10;;
59314;SDS011;46521;50.160;20.802;2023-03-16T01:38:14;15.70;;;8.70;;
59314;SDS011;46521;50.160;20.802;2023-03-16T01:48:16;14.70;;;7.80;;
59314;SDS011;46521;50.160;20.802;2023-03-16T01:58:17;16.95;;;8.50;;
59314;SDS011;46521;50.160;20.802;2023-03-16T02:08:19;16.60;;;7.70;;
59314;SDS011;46521;50.160;20.802;2023-03-16T02:18:22;15.60;;;7.70;;
59314;SDS011;46521;50.160;20.802;2023-03-16T02:28:27;15.20;;;7.90;;
59314;SDS011;46521;50.160;20.802;2023-03-16T02:38:52;12.90;;;7.60;;
59314;SDS011;46521;50.160;20.802;2023-03-16T02:49:02;15.60;;;8.00;;
59314;SDS011;46521;50.160;20.802;2023-03-16T02:59:16;14.80;;;7.20;;
59314;SDS011;46521;50.160;20.802;2023-03-16T03:09:18;17.75;;;7.70;;
59314;SDS011;46521;50.160;20.802;2023-03-16T03:19:20;15.35;;;7.50;;
59314;SDS011;46521;50.160;20.802;2023-03-16T03:29:22;16.05;;;7.10;;
59314;SDS011;46521;50.160;20.802;2023-03-16T03:39:24;15.25;;;7.10;;
59314;SDS011;46521;50.160;20.802;2023-03-16T03:49:26;15.93;;;7.87;;
59314;SDS011;46521;50.160;20.802;2023-03-16T03:59:28;17.90;;;9.10;;
59314;SDS011;46521;50.160;20.802;2023-03-16T04:09:30;17.40;;;8.10;;
59314;SDS011;46521;50.160;20.802;2023-03-16T04:19:34;15.30;;;8.20;;
59314;SDS011;46521;50.160;20.802;2023-03-16T04:29:36;14.30;;;7.75;;
59314;SDS011;46521;50.160;20.802;2023-03-16T04:39:39;17.10;;;7.60;;
59314;SDS011;46521;50.160;20.802;2023-03-16T04:49:41;17.05;;;7.30;;
59314;SDS011;46521;50.160;20.802;2023-03-16T04:59:43;20.15;;;8.50;;
59314;SDS011;46521;50.160;20.802;2023-03-16T05:09:44;14.60;;;8.20;;
59314;SDS011;46521;50.160;20.802;2023-03-16T05:19:46;15.95;;;8.80;;
59314;SDS011;46521;50.160;20.802;2023-03-16T05:29:48;20.00;;;9.60;;
59314;SDS011;46521;50.160;20.802;2023-03-16T05:39:49;21.05;;;9.95;;
59314;SDS011;46521;50.160;20.802;2023-03-16T05:49:51;20.40;;;9.90;;
59314;SDS011;46521;50.160;20.802;2023-03-16T05:59:53;17.10;;;9.00;;
59314;SDS011;46521;50.160;20.802;2023-03-16T06:09:54;15.95;;;9.40;;
59314;SDS011;46521;50.160;20.802;2023-03-16T06:19:56;17.00;;;9.40;;
59314;SDS011;46521;50.160;20.802;2023-03-16T06:29:57;20.20;;;10.75;;
59314;SDS011;46521;50.160;20.802;2023-03-16T06:39:59;19.55;;;10.45;;
59314;SDS011;46521;50.160;20.802;2023-03-16T06:50:01;17.35;;;8.75;;
59314;SDS011;46521;50.160;20.802;2023-03-16T07:00:02;20.70;;;9.60;;
59314;SDS011;46521;50.160;20.802;2023-03-16T07:10:04;16.90;;;9.60;;
59314;SDS011;46521;50.160;20.802;2023-03-16T07:20:06;18.80;;;10.77;;
59314;SDS011;46521;50.160;20.802;2023-03-16T07:30:10;16.15;;;9.10;;
59314;SDS011;46521;50.160;20.802;2023-03-16T07:40:14;21.07;;;9.67;;
59314;SDS011;46521;50.160;20.802;2023-03-16T07:50:16;19.28;;;9.90;;
59314;SDS011;46521;50.160;20.802;2023-03-16T08:00:19;19.40;;;10.00;;
59314;SDS011;46521;50.160;20.802;2023-03-16T08:10:23;19.58;;;9.58;;
59314;SDS011;46521;50.160;20.802;2023-03-16T08:20:25;21.55;;;9.90;;
59314;SDS011;46521;50.160;20.802;2023-03-16T08:30:27;14.90;;;7.10;;
59314;SDS011;46521;50.160;20.802;2023-03-16T08:40:31;14.80;;;7.27;;
59314;SDS011;46521;50.160;20.802;2023-03-16T08:50:34;13.83;;;7.07;;
59314;SDS011;46521;50.160;20.802;2023-03-16T09:00:36;15.73;;;7.00;;
59314;SDS011;46521;50.160;20.802;2023-03-16T09:10:39;12.55;;;5.80;;
59314;SDS011;46521;50.160;20.802;2023-03-16T09:20:41;11.55;;;5.03;;
59314;SDS011;46521;50.160;20.802;2023-03-16T09:30:43;11.95;;;4.65;;
59314;SDS011;46521;50.160;20.802;2023-03-16T09:40:46;11.17;;;4.37;;
59314;SDS011;46521;50.160;20.802;2023-03-16T09:50:55;11.18;;;4.28;;
59314;SDS011;46521;50.160;20.802;2023-03-16T10:11:33;11.23;;;4.13;;
59314;SDS011;46521;50.160;20.802;2023-03-16T10:21:42;8.53;;;3.53;;
59314;SDS011;46521;50.160;20.802;2023-03-16T10:31:44;13.18;;;5.53;;
59314;SDS011;46521;50.160;20.802;2023-03-16T10:41:53;9.03;;;4.03;;
59314;SDS011;46521;50.160;20.802;2023-03-16T10:51:57;11.58;;;4.60;;
59314;SDS011;46521;50.160;20.802;2023-03-16T11:02:00;10.30;;;8.40;;
59314;SDS011;46521;50.160;20.802;2023-03-16T11:12:20;10.00;;;4.17;;
59314;SDS011;46521;50.160;20.802;2023-03-16T11:22:26;10.50;;;4.00;;
59314;SDS011;46521;50.160;20.802;2023-03-16T11:32:32;10.10;;;4.60;;
59314;SDS011;46521;50.160;20.802;2023-03-16T11:42:42;8.60;;;3.83;;
59314;SDS011;46521;50.160;20.802;2023-03-16T11:53:07;8.00;;;3.95;;
59314;SDS011;46521;50.160;20.802;2023-03-16T12:24:10;9.43;;;4.40;;
59314;SDS011;46521;50.160;20.802;2023-03-16T12:34:28;7.35;;;3.33;;
59314;SDS011;46521;50.160;20.802;2023-03-16T12:54:50;7.70;;;3.45;;
59314;SDS011;46521;50.160;20.802;2023-03-16T13:05:00;12.37;;;6.10;;
59314;SDS011;46521;50.160;20.802;2023-03-16T13:25:23;6.70;;;2.70;;
59314;SDS011;46521;50.160;20.802;2023-03-16T13:35:40;8.05;;;2.75;;
59314;SDS011;46521;50.160;20.802;2023-03-16T13:45:42;8.23;;;2.98;;
59314;SDS011;46521;50.160;20.802;2023-03-16T13:55:44;8.00;;;3.28;;
59314;SDS011;46521;50.160;20.802;2023-03-16T14:05:47;11.75;;;4.10;;
59314;SDS011;46521;50.160;20.802;2023-03-16T14:15:49;9.00;;;3.50;;
59314;SDS011;46521;50.160;20.802;2023-03-16T14:25:54;9.70;;;4.30;;
59314;SDS011;46521;50.160;20.802;2023-03-16T14:35:57;9.70;;;5.13;;
59314;SDS011;46521;50.160;20.802;2023-03-16T14:46:01;9.20;;;4.35;;
59314;SDS011;46521;50.160;20.802;2023-03-16T14:56:09;9.40;;;4.20;;
59314;SDS011;46521;50.160;20.802;2023-03-16T15:06:13;15.35;;;6.30;;
59314;SDS011;46521;50.160;20.802;2023-03-16T15:16:15;37.27;;;17.47;;
59314;SDS011;46521;50.160;20.802;2023-03-16T15:26:18;13.70;;;6.70;;
59314;SDS011;46521;50.160;20.802;2023-03-16T15:36:28;16.23;;;8.87;;
59314;SDS011;46521;50.160;20.802;2023-03-16T15:46:29;20.05;;;11.50;;
59314;SDS011;46521;50.160;20.802;2023-03-16T15:56:32;20.15;;;9.45;;
59314;SDS011;46521;50.160;20.802;2023-03-16T16:06:36;13.70;;;6.07;;
59314;SDS011;46521;50.160;20.802;2023-03-16T16:16:37;9.87;;;4.40;;
59314;SDS011;46521;50.160;20.802;2023-03-16T16:26:44;10.05;;;4.30;;
59314;SDS011;46521;50.160;20.802;2023-03-16T16:36:51;8.80;;;3.95;;
59314;SDS011;46521;50.160;20.802;2023-03-16T16:46:53;11.55;;;4.70;;
59314;SDS011;46521;50.160;20.802;2023-03-16T16:56:56;18.10;;;8.00;;
59314;SDS011;46521;50.160;20.802;2023-03-16T17:06:59;17.75;;;7.15;;
59314;SDS011;46521;50.160;20.802;2023-03-16T17:17:01;19.23;;;8.70;;
59314;SDS011;46521;50.160;20.802;2023-03-16T17:27:12;23.40;;;10.50;;
59314;SDS011;46521;50.160;20.802;2023-03-16T17:37:18;34.10;;;14.70;;
59314;SDS011;46521;50.160;20.802;2023-03-16T17:47:21;34.63;;;16.83;;
59314;SDS011;46521;50.160;20.802;2023-03-16T17:57:29;35.90;;;19.40;;
59314;SDS011;46521;50.160;20.802;2023-03-16T18:07:32;32.70;;;17.20;;
59314;SDS011;46521;50.160;20.802;2023-03-16T18:17:34;27.65;;;14.25;;
59314;SDS011;46521;50.160;20.802;2023-03-16T18:27:35;27.30;;;14.65;;
59314;SDS011;46521;50.160;20.802;2023-03-16T18:37:37;24.90;;;13.30;;
59314;SDS011;46521;50.160;20.802;2023-03-16T18:47:39;33.35;;;18.00;;
59314;SDS011;46521;50.160;20.802;2023-03-16T18:57:47;24.50;;;13.85;;
59314;SDS011;46521;50.160;20.802;2023-03-16T19:07:56;25.65;;;11.85;;
59314;SDS011;46521;50.160;20.802;2023-03-16T19:17:57;18.20;;;8.45;;
59314;SDS011;46521;50.160;20.802;2023-03-16T19:27:59;17.15;;;8.65;;
59314;SDS011;46521;50.160;20.802;2023-03-16T19:38:01;25.00;;;12.65;;
59314;SDS011;46521;50.160;20.802;2023-03-16T19:48:04;47.40;;;22.00;;
59314;SDS011;46521;50.160;20.802;2023-03-16T19:58:29;21.75;;;10.50;;
59314;SDS011;46521;50.160;20.802;2023-03-16T20:08:34;57.35;;;25.85;;
59314;SDS011;46521;50.160;20.802;2023-03-16T20:18:36;18.10;;;10.00;;
59314;SDS011;46521;50.160;20.802;2023-03-16T20:28:38;37.17;;;18.57;;
59314;SDS011;46521;50.160;20.802;2023-03-16T20:38:40;32.40;;;17.20;;
59314;SDS011;46521;50.160;20.802;2023-03-16T20:48:43;38.75;;;20.60;;
59314;SDS011;46521;50.160;20.802;2023-03-16T20:58:44;29.10;;;13.60;;
59314;SDS011;46521;50.160;20.802;2023-03-16T21:08:50;40.70;;;21.25;;
59314;SDS011;46521;50.160;20.802;2023-03-16T21:18:53;42.03;;;20.83;;
59314;SDS011;46521;50.160;20.802;2023-03-16T21:28:58;86.25;;;43.05;;
59314;SDS011;46521;50.160;20.802;2023-03-16T21:39:04;40.20;;;20.20;;
59314;SDS011;46521;50.160;20.802;2023-03-16T21:49:17;32.67;;;17.90;;
59314;SDS011;46521;50.160;20.802;2023-03-16T21:59:19;32.60;;;16.15;;
59314;SDS011;46521;50.160;20.802;2023-03-16T22:09:21;50.50;;;27.37;;
59314;SDS011;46521;50.160;20.802;2023-03-16T22:19:24;44.75;;;24.50;;
59314;SDS011;46521;50.160;20.802;2023-03-16T22:29:29;35.45;;;18.50;;
59314;SDS011;46521;50.160;20.802;2023-03-16T22:39:34;34.40;;;19.10;;
59314;SDS011;46521;50.160;20.802;2023-03-16T22:49:37;36.80;;;20.45;;
59314;SDS011;46521;50.160;20.802;2023-03-16T22:59:39;38.15;;;20.75;;
59314;SDS011;46521;50.160;20.802;2023-03-16T23:09:41;38.00;;;19.75;;
59314;SDS011;46521;50.160;20.802;2023-03-16T23:19:42;39.60;;;21.50;;
59314;SDS011;46521;50.160;20.802;2023-03-16T23:29:44;47.30;;;24.50;;
59314;SDS011;46521;50.160;20.802;2023-03-16T23:39:46;50.10;;;25.60;;
59314;SDS011;46521;50.160;20.802;2023-03-16T23:49:49;58.40;;;30.80;;
